地図

経路データ

SID SEASON NUMBER BASIN SUBBASIN NAME ISO_TIME NATURE LAT LON WMO_WIND WMO_PRES WMO_AGENCY TRACK_TYPE DIST2LAND LANDFALL IFLAG USA_AGENCY USA_ATCF_ID USA_LAT USA_LON USA_RECORD USA_STATUS USA_WIND USA_PRES USA_SSHS USA_R34_NE USA_R34_SE USA_R34_SW USA_R34_NW USA_R50_NE USA_R50_SE USA_R50_SW USA_R50_NW USA_R64_NE USA_R64_SE USA_R64_SW USA_R64_NW USA_POCI USA_ROCI USA_RMW USA_EYE TOKYO_LAT TOKYO_LON TOKYO_GRADE TOKYO_WIND TOKYO_PRES TOKYO_R50_DIR TOKYO_R50_LONG TOKYO_R50_SHORT TOKYO_R30_DIR TOKYO_R30_LONG TOKYO_R30_SHORT TOKYO_LAND CMA_LAT CMA_LON CMA_CAT CMA_WIND CMA_PRES HKO_LAT HKO_LON HKO_CAT HKO_WIND HKO_PRES NEWDELHI_LAT NEWDELHI_LON NEWDELHI_GRADE NEWDELHI_WIND NEWDELHI_PRES NEWDELHI_CI NEWDELHI_DP NEWDELHI_POCI REUNION_LAT REUNION_LON REUNION_TYPE REUNION_WIND REUNION_PRES REUNION_TNUM REUNION_CI REUNION_RMW REUNION_R34_NE REUNION_R34_SE REUNION_R34_SW REUNION_R34_NW REUNION_R50_NE REUNION_R50_SE REUNION_R50_SW REUNION_R50_NW REUNION_R64_NE REUNION_R64_SE REUNION_R64_SW REUNION_R64_NW BOM_LAT BOM_LON BOM_TYPE BOM_WIND BOM_PRES BOM_TNUM BOM_CI BOM_RMW BOM_R34_NE BOM_R34_SE BOM_R34_SW BOM_R34_NW BOM_R50_NE BOM_R50_SE BOM_R50_SW BOM_R50_NW BOM_R64_NE BOM_R64_SE BOM_R64_SW BOM_R64_NW BOM_ROCI BOM_POCI BOM_EYE BOM_POS_METHOD BOM_PRES_METHOD NADI_LAT NADI_LON NADI_CAT NADI_WIND NADI_PRES WELLINGTON_LAT WELLINGTON_LON WELLINGTON_WIND WELLINGTON_PRES DS824_LAT DS824_LON DS824_STAGE DS824_WIND DS824_PRES TD9636_LAT TD9636_LON TD9636_STAGE TD9636_WIND TD9636_PRES TD9635_LAT TD9635_LON TD9635_WIND TD9635_PRES TD9635_ROCI NEUMANN_LAT NEUMANN_LON NEUMANN_CLASS NEUMANN_WIND NEUMANN_PRES MLC_LAT MLC_LON MLC_CLASS MLC_WIND MLC_PRES USA_GUST BOM_GUST BOM_GUST_PER REUNION_GUST REUNION_GUST_PER USA_SEAHGT USA_SEARAD_NE USA_SEARAD_SE USA_SEARAD_SW USA_SEARAD_NW STORM_SPEED STORM_DIR
1946178N09144 1946 34 WP MM GINNY 1946-06-26 12:00:00 NR 9.30000 143.800 main 1314 1314 __________O___ -1 9.30000 143.800 7 5 296
1946178N09144 1946 34 WP MM GINNY 1946-06-26 15:00:00 NR 9.41108 143.574 main 1330 1330 __________P___ -1 9.41108 143.574 7 5 297
1946178N09144 1946 34 WP MM GINNY 1946-06-26 18:00:00 NR 9.52769 143.338 main 1350 1350 __________P___ -1 9.52769 143.338 7 5 297
1946178N09144 1946 34 WP MM GINNY 1946-06-26 21:00:00 NR 9.65546 143.083 main 1377 1369 __________P___ -1 9.65546 143.083 7 6 297
1946178N09144 1946 34 WP MM GINNY 1946-06-27 00:00:00 NR 9.80000 142.800 main 1375 1371 __________O___ -1 9.80000 142.800 7 7 298
1946178N09144 1946 34 WP MM GINNY 1946-06-27 03:00:00 NR 9.96755 142.479 main 1384 1376 __________P___ -1 9.96755 142.479 7 8 298
1946178N09144 1946 34 WP MM GINNY 1946-06-27 06:00:00 NR 10.1670 142.112 main 1391 1387 __________P___ -1 10.1670 142.112 7 9 300
1946178N09144 1946 34 WP MM GINNY 1946-06-27 09:00:00 NR 10.4080 141.688 main 1399 1396 __________P___ -1 10.4080 141.688 7 10 301
1946178N09144 1946 34 WP MM GINNY 1946-06-27 12:00:00 NR 10.7000 141.200 main 1415 1411 __________O___ -1 10.7000 141.200 3 13 302
1946178N09144 1946 34 WP MM GINNY 1946-06-27 15:00:00 NR 11.0913 140.572 main 1431 1427 __________P___ -1 11.0913 140.572 3 15 303
1946178N09144 1946 34 WP MM GINNY 1946-06-27 18:00:00 NR 11.5240 139.892 main 1447 1447 __________P___ -1 11.5240 139.892 3 16 303
1946178N09144 1946 34 WP MM GINNY 1946-06-27 21:00:00 NR 11.9445 139.241 main 1453 1409 __________P___ -1 11.9445 139.241 3 14 304
1946178N09144 1946 34 WP MM GINNY 1946-06-28 00:00:00 NR 12.3000 138.700 main 1409 1382 __________O___ -1 12.3000 138.700 7 10 303
1946178N09144 1946 34 WP MM GINNY 1946-06-28 03:00:00 NR 12.5007 138.356 main 1382 1351 __________P___ -1 12.5007 138.356 7 6 301
1946178N09144 1946 34 WP MM GINNY 1946-06-28 06:00:00 NR 12.6365 138.134 main 1351 1341 __________P___ -1 12.6365 138.134 7 4 306
1946178N09144 1946 34 WP MM GINNY 1946-06-28 09:00:00 NR 12.7541 137.994 main 1343 1332 __________P___ -1 12.7541 137.994 7 4 319
1946178N09144 1946 34 WP MM GINNY 1946-06-28 12:00:00 NR 12.9000 137.900 main 1334 1324 __________O___ -1 12.9000 137.900 7 4 327
1946178N09144 1946 34 WP MM GINNY 1946-06-28 15:00:00 NR 13.1227 137.749 main 1315 1310 __________P___ -1 13.1227 137.749 7 5 332
1946178N09144 1946 34 WP MM GINNY 1946-06-28 18:00:00 NR 13.3824 137.638 main 1310 1310 __________P___ -1 13.3824 137.638 7 6 344
1946178N09144 1946 34 WP MM GINNY 1946-06-28 21:00:00 NR 13.6758 137.583 main 1317 1317 __________P___ -1 13.6758 137.583 7 6 356
1946178N09144 1946 34 WP MM GINNY 1946-06-29 00:00:00 NR 14.0000 137.600 main 1324 1324 __________O___ -1 14.0000 137.600 7 7 8
1946178N09144 1946 34 WP MM GINNY 1946-06-29 03:00:00 NR 14.3584 137.687 main 1343 1343 __________P___ -1 14.3584 137.687 7 8 18
1946178N09144 1946 34 WP MM GINNY 1946-06-29 06:00:00 NR 14.7424 137.845 main 1359 1359 __________P___ -1 14.7424 137.845 7 9 25
1946178N09144 1946 34 WP MM GINNY 1946-06-29 09:00:00 NR 15.1303 138.055 main 1400 1400 __________P___ -1 15.1303 138.055 7 9 30
1946178N09144 1946 34 WP MM GINNY 1946-06-29 12:00:00 NR 15.5000 138.300 main 1430 1430 __________O___ -1 15.5000 138.300 7 9 35
1946178N09144 1946 34 WP MM GINNY 1946-06-29 15:00:00 NR 15.8298 138.554 main 1469 1469 __________P___ -1 15.8298 138.554 7 8 39
1946178N09144 1946 34 WP MM GINNY 1946-06-29 18:00:00 NR 16.1376 138.835 main 1499 1499 __________P___ -1 16.1376 138.835 7 8 43
1946178N09144 1946 34 WP MM GINNY 1946-06-29 21:00:00 NR 16.4267 139.123 main 1539 1539 __________P___ -1 16.4267 139.123 7 8 44
1946178N09144 1946 34 WP MM GINNY 1946-06-30 00:00:00 NR 16.7000 139.400 main 1579 1579 __________O___ -1 16.7000 139.400 7 7 42
1946178N09144 1946 34 WP MM GINNY 1946-06-30 03:00:00 NR 16.9600 139.628 main 1609 1606 __________P___ -1 16.9600 139.628 7 9 135
1946178N09144 1946 34 WP MM GINNY 1946-06-30 06:00:00 TS 16.0898 140.039 main 1623 1623 O________OPO__ jtwc_wp WP051946 14.6000 140.300 35 0 14.6000 140.300 TC 35 17.2071 139.843 7 14.6000 140.300 35 998 300 11 146
1946178N09144 1946 34 WP MM GINNY 1946-06-30 09:00:00 TS 16.0643 140.262 main 1654 1654 P________PPP__ WP051946 15.1400 140.395 42 0 15.1400 140.395 TC 42 17.4507 140.062 7 15.1400 140.395 42 995 330 4 65
1946178N09144 1946 34 WP MM GINNY 1946-06-30 12:00:00 TS 16.2714 140.443 main 1670 1670 O________OOO__ jtwc_wp WP051946 15.7000 140.500 50 0 15.7000 140.500 TC 50 17.7000 140.300 7 15.7000 140.500 50 992 360 7 29
1946178N09144 1946 34 WP MM GINNY 1946-06-30 15:00:00 TS 16.6537 140.599 main 1702 1702 P________PPP__ WP051946 16.3050 140.628 57 0 16.3050 140.628 TC 57 17.8653 140.509 7 16.3050 140.628 57 988 390 10 19
1946178N09144 1946 34 WP MM GINNY 1946-06-30 18:00:00 TS 17.2218 140.789 main 1737 1737 O________OPO__ jtwc_wp WP051946 17.0000 140.800 65 1 17.0000 140.800 TC 65 18.0534 140.749 7 17.0000 140.800 65 984 420 13 18
1946178N09144 1946 34 WP MM GINNY 1946-06-30 21:00:00 TS 17.9094 141.034 main 1782 1733 P________PPP__ WP051946 17.8123 140.983 72 1 17.8123 140.983 TC 72 18.3398 141.064 7 17.8123 140.983 72 979 420 16 22
1946178N09144 1946 34 WP MM GINNY 1946-07-01 00:00:00 TS 18.7038 141.410 main 1733 1665 O________OOO__ jtwc_wp WP051946 18.7000 141.300 80 1 18.7000 141.300 TC 80 18.8000 141.500 7 18.7000 141.300 80 974 420 19 28
1946178N09144 1946 34 WP MM GINNY 1946-07-01 03:00:00 TS 19.5752 141.954 main 1658 1595 P________PPP__ WP051946 19.6000 141.825 80 1 19.6000 141.825 TC 80 19.5601 142.058 7 19.6000 141.825 80 972 450 21 33
1946178N09144 1946 34 WP MM GINNY 1946-07-01 06:00:00 TS 20.4833 142.621 main 1589 1539 O________OPO__ jtwc_wp WP051946 20.5000 142.500 80 1 20.5000 142.500 TC 80 20.4859 142.751 7 20.5000 142.500 80 971 480 22 36
1946178N09144 1946 34 WP MM GINNY 1946-07-01 09:00:00 TS 21.3755 143.369 main 1534 1475 P________PPP__ WP051946 21.3579 143.272 75 1 21.3579 143.272 TC 75 21.4687 143.569 7 21.3579 143.272 75 974 480 22 38
1946178N09144 1946 34 WP MM GINNY 1946-07-01 12:00:00 TS 22.2400 144.100 main 1475 1407 O________OOO__ jtwc_wp WP051946 22.2000 144.000 70 1 22.2000 144.000 TC 70 22.4000 144.500 7 22.2000 144.000 70 978 480 21 36
1946178N09144 1946 34 WP MM GINNY 1946-07-01 15:00:00 TS 23.0618 144.715 main 1396 1336 P________PPP__ WP051946 23.0796 144.533 65 1 23.0796 144.533 TC 65 23.1961 145.531 7 23.0796 144.533 65 981 450 19 32
1946178N09144 1946 34 WP MM GINNY 1946-07-01 18:00:00 TS 23.8207 145.159 main 1340 1285 O________OPO__ jtwc_wp WP051946 23.9000 144.900 60 0 23.9000 144.900 TC 60 23.8700 146.639 7 23.9000 144.900 60 984 420 16 26
1946178N09144 1946 34 WP MM GINNY 1946-07-01 21:00:00 TS 24.4781 145.455 main 1279 1218 P________PPP__ WP051946 24.5423 145.175 55 0 24.5423 145.175 TC 55 24.4589 147.804 7 24.5423 145.175 55 986 420 14 13
1946178N09144 1946 34 WP MM GINNY 1946-07-02 00:00:00 TS 25.1882 145.518 main 1208 1119 O________OOO__ jtwc_wp WP051946 25.2000 145.300 50 0 25.2000 145.300 TC 50 25.0000 149.000 7 25.2000 145.300 50 988 420 16 355
1946178N09144 1946 34 WP MM GINNY 1946-07-02 03:00:00 TS 26.0310 145.309 main 1119 1005 P________P_P__ WP051946 25.9352 145.295 47 0 25.9352 145.295 TC 47 7 25.9352 145.295 47 988 420 20 352
1946178N09144 1946 34 WP MM GINNY 1946-07-02 06:00:00 TS 27.1535 145.224 main 995 856 O________O_O__ jtwc_wp WP051946 27.0000 145.200 45 0 27.0000 145.200 TC 45 7 27.0000 145.200 45 989 420 27 356
1946178N09144 1946 34 WP MM GINNY 1946-07-02 09:00:00 TS 28.7014 145.116 main 847 685 P________P_P__ WP051946 28.5925 145.098 40 0 28.5925 145.098 TC 40 7 28.5925 145.098 40 989 390 34 357
1946178N09144 1946 34 WP MM GINNY 1946-07-02 12:00:00 TS 30.5000 145.000 main 677 O________O_O__ jtwc_wp WP051946 30.5000 145.000 35 0 30.5000 145.000 TC 35 30.5000 145.000 35 989 360 36 357

デジタル台風データ・検索

IBTrACS Databaseについて

本データベースは、米国NOAAが公開する1842年以降の世界の熱帯低気圧のベストトラックデータアーカイブInternational Best Track Archive for Climate Stewardship (IBTrACS)を、ウェブで閲覧しやすい形式に変換したものです。

最終更新日:2021-12-06